createdAt,value
2022-09-07T00:02:45.021Z,3.20
2022-09-07T00:05:50.223Z,3.20
2022-09-07T00:08:53.238Z,3.07
2022-09-07T00:11:56.039Z,3.20
2022-09-07T00:15:00.267Z,3.20
2022-09-07T00:18:03.326Z,3.90
2022-09-07T00:21:08.344Z,3.73
2022-09-07T00:24:11.049Z,3.40
2022-09-07T00:27:13.786Z,3.40
2022-09-07T00:30:18.087Z,3.20
2022-09-07T00:33:21.201Z,2.93
2022-09-07T00:36:24.742Z,3.10
2022-09-07T00:39:27.564Z,3.20
2022-09-07T00:42:30.510Z,3.10
2022-09-07T00:45:34.571Z,3.17
2022-09-07T00:48:44.926Z,3.20
2022-09-07T00:51:53.315Z,3.00
2022-09-07T00:55:00.241Z,3.07
2022-09-07T00:58:04.250Z,3.30
2022-09-07T01:01:09.862Z,3.43
2022-09-07T01:04:12.845Z,3.20
2022-09-07T01:07:16.009Z,3.60
2022-09-07T01:10:19.132Z,3.40
2022-09-07T01:13:21.913Z,3.27
2022-09-07T01:16:37.188Z,3.00
2022-09-07T01:20:18.148Z,3.27
2022-09-07T01:24:02.564Z,3.40
2022-09-07T01:27:33.064Z,3.30
2022-09-07T01:30:39.732Z,2.97
2022-09-07T01:33:52.837Z,3.30
2022-09-07T01:37:01.753Z,3.43
2022-09-07T01:40:11.725Z,3.50
2022-09-07T01:43:21.609Z,3.47
2022-09-07T01:46:29.178Z,3.50
2022-09-07T01:49:37.954Z,3.40
2022-09-07T01:52:45.410Z,3.20
2022-09-07T01:55:53.375Z,3.23
2022-09-07T01:58:59.748Z,3.20
2022-09-07T02:02:08.486Z,3.20
2022-09-07T02:05:15.768Z,3.50
2022-09-07T02:08:24.965Z,3.43
2022-09-07T02:11:36.778Z,3.00
2022-09-07T02:14:42.765Z,3.13
2022-09-07T02:17:51.375Z,3.10
2022-09-07T02:20:58.116Z,3.67
2022-09-07T02:24:07.291Z,3.30
2022-09-07T02:27:13.231Z,3.40
2022-09-07T02:30:16.839Z,3.27
2022-09-07T02:33:21.049Z,3.30
2022-09-07T02:36:27.967Z,3.03
2022-09-07T02:39:30.787Z,3.30
2022-09-07T02:42:35.490Z,3.20
2022-09-07T02:45:52.461Z,3.00
2022-09-07T02:49:09.835Z,3.23
2022-09-07T02:52:21.524Z,3.57
2022-09-07T02:55:33.992Z,3.20
2022-09-07T02:58:47.272Z,3.37
2022-09-07T03:01:58.433Z,3.73
2022-09-07T03:05:11.060Z,3.47
2022-09-07T03:08:19.513Z,3.97
2022-09-07T03:11:23.577Z,4.10
2022-09-07T03:14:30.242Z,4.00
2022-09-07T03:17:33.077Z,3.97
2022-09-07T03:20:37.461Z,4.27
2022-09-07T03:23:40.151Z,5.17
2022-09-07T03:26:45.791Z,5.33
2022-09-07T03:29:48.485Z,5.50
2022-09-07T03:32:51.321Z,5.70
2022-09-07T03:36:03.291Z,5.17
2022-09-07T03:39:07.359Z,5.53
2022-09-07T03:42:10.128Z,5.77
2022-09-07T03:45:12.864Z,5.87
2022-09-07T03:48:15.719Z,5.20
2022-09-07T03:51:20.171Z,5.70
2022-09-07T03:54:23.226Z,5.57
2022-09-07T03:57:26.111Z,5.70
2022-09-07T04:00:28.857Z,6.40
2022-09-07T04:03:31.616Z,6.53
2022-09-07T04:06:36.627Z,5.87
2022-09-07T04:09:39.468Z,6.30
2022-09-07T04:12:42.189Z,6.07
2022-09-07T04:15:44.917Z,6.00
2022-09-07T04:18:49.670Z,6.40
2022-09-07T04:21:54.760Z,6.30
2022-09-07T04:24:57.481Z,5.80
2022-09-07T04:28:00.332Z,6.23
2022-09-07T04:31:03.578Z,5.20
2022-09-07T04:34:07.183Z,5.83
2022-09-07T04:37:12.572Z,6.50
2022-09-07T04:40:15.555Z,6.40
2022-09-07T04:43:18.305Z,6.20
2022-09-07T04:46:24.336Z,6.53
2022-09-07T04:49:27.771Z,5.80
2022-09-07T04:52:31.846Z,6.47
2022-09-07T04:55:34.593Z,6.20
2022-09-07T04:58:37.309Z,6.03
2022-09-07T05:01:40.082Z,7.43
2022-09-07T05:04:42.887Z,6.93
2022-09-07T05:07:46.920Z,6.87
2022-09-07T05:10:52.607Z,6.43
2022-09-07T05:13:56.745Z,6.57
2022-09-07T05:16:59.501Z,6.50
2022-09-07T05:20:02.555Z,7.07
2022-09-07T05:23:06.921Z,5.97
2022-09-07T05:26:10.813Z,6.63
2022-09-07T05:32:36.562Z,5.20
2022-09-07T05:35:39.272Z,5.60
2022-09-07T05:38:43.650Z,5.77
2022-09-07T05:41:46.331Z,5.67
2022-09-07T05:44:49.078Z,5.90
2022-09-07T05:47:52.141Z,6.73
2022-09-07T05:50:54.849Z,7.27
2022-09-07T05:53:59.770Z,7.30
2022-09-07T05:57:03.913Z,8.10
2022-09-07T06:00:07.383Z,7.67
2022-09-07T06:03:10.257Z,7.63
2022-09-07T06:06:14.852Z,8.03
2022-09-07T06:09:18.889Z,6.93
2022-09-07T06:12:22.063Z,7.17
2022-09-07T06:15:24.809Z,5.93
2022-09-07T06:18:31.447Z,6.37
2022-09-07T06:21:36.834Z,6.43
2022-09-07T06:24:40.920Z,6.27
2022-09-07T06:27:43.691Z,5.30
2022-09-07T06:30:46.593Z,6.20
2022-09-07T06:33:50.306Z,6.00
2022-09-07T06:36:53.042Z,5.17
2022-09-07T06:39:57.404Z,5.47
2022-09-07T06:43:00.242Z,5.07
2022-09-07T06:55:03.417Z,5.30
2022-09-07T06:58:06.465Z,5.10
2022-09-07T07:01:12.080Z,4.37
2022-09-07T07:04:15.175Z,4.70
2022-09-07T07:07:17.927Z,5.23
2022-09-07T07:10:24.803Z,4.70
2022-09-07T07:13:28.073Z,3.63
2022-09-07T07:16:31.133Z,4.97
2022-09-07T07:19:34.012Z,3.87
2022-09-07T07:22:46.402Z,4.63
2022-09-07T07:25:50.929Z,4.47
2022-09-07T07:29:03.721Z,4.83
2022-09-07T07:32:07.348Z,4.33
2022-09-07T07:35:11.149Z,4.23
2022-09-07T07:41:56.456Z,4.33
2022-09-07T07:52:49.456Z,3.57
2022-09-07T07:54:54.795Z,3.73
2022-09-07T07:57:58.814Z,4.27
2022-09-07T08:01:03.360Z,4.10
2022-09-07T08:04:06.222Z,3.73
2022-09-07T08:07:12.148Z,3.13
2022-09-07T08:10:15.054Z,4.27
2022-09-07T08:13:19.524Z,4.43
2022-09-07T08:16:23.073Z,3.03
2022-09-07T08:19:25.798Z,3.30
2022-09-07T08:22:31.767Z,4.20
2022-09-07T08:25:37.770Z,3.80
2022-09-07T08:28:43.948Z,4.13
2022-09-07T08:31:46.705Z,2.40
2022-09-07T08:34:49.652Z,2.50
2022-09-07T08:37:52.349Z,2.10
2022-09-07T08:40:55.536Z,2.03
2022-09-07T08:44:02.876Z,1.90
2022-09-07T08:47:12.759Z,2.20
2022-09-07T08:50:21.311Z,2.63
2022-09-07T08:53:25.651Z,2.73
2022-09-07T08:56:33.944Z,2.20
2022-09-07T08:59:43.856Z,1.93
2022-09-07T09:03:28.667Z,2.13
2022-09-07T09:06:18.665Z,2.30
2022-09-07T09:09:33.075Z,2.20
2022-09-07T09:12:55.149Z,1.97
2022-09-07T09:16:05.891Z,1.73
2022-09-07T09:19:31.325Z,2.00
2022-09-07T09:22:34.076Z,1.90
2022-09-07T09:25:39.648Z,1.90
2022-09-07T09:28:42.437Z,1.87
2022-09-07T09:31:46.932Z,1.90
2022-09-07T09:35:01.975Z,2.00
2022-09-07T09:38:05.037Z,1.90
2022-09-07T09:41:09.550Z,1.80
2022-09-07T09:44:17.092Z,1.60
2022-09-07T09:47:32.726Z,1.90
2022-09-07T09:54:07.192Z,1.97
2022-09-07T09:57:16.256Z,2.10
2022-09-07T10:00:27.901Z,1.50
2022-09-07T10:07:04.813Z,1.57
2022-09-07T10:10:16.458Z,1.87
2022-09-07T10:13:22.438Z,1.83
2022-09-07T10:16:39.660Z,1.70
2022-09-07T10:19:45.277Z,1.50
2022-09-07T10:22:59.485Z,1.70
2022-09-07T10:26:22.123Z,1.53
2022-09-07T10:29:32.397Z,1.73
2022-09-07T10:32:47.777Z,1.87
2022-09-07T10:35:59.941Z,1.70
2022-09-07T10:39:07.617Z,1.40
2022-09-07T10:42:24.911Z,1.60
2022-09-07T10:45:38.201Z,1.90
2022-09-07T10:48:51.384Z,1.87
2022-09-07T10:52:10.579Z,1.80
2022-09-07T10:55:18.644Z,1.87
2022-09-07T10:59:01.409Z,1.70
2022-09-07T11:02:01.880Z,1.50
2022-09-07T11:05:12.452Z,1.67
2022-09-07T11:09:15.191Z,1.60
2022-09-07T11:15:27.105Z,1.67
2022-09-07T11:18:34.267Z,1.60
2022-09-07T11:21:57.307Z,1.53
2022-09-07T11:28:36.706Z,1.73
2022-09-07T11:31:44.391Z,1.37
2022-09-07T11:34:52.495Z,1.70
2022-09-07T11:37:59.590Z,1.90
2022-09-07T11:41:19.561Z,1.60
2022-09-07T11:44:28.467Z,1.60
2022-09-07T11:47:37.107Z,1.60
2022-09-07T11:50:47.272Z,1.70
2022-09-07T11:53:54.754Z,1.70
2022-09-07T11:57:09.457Z,1.63
2022-09-07T12:00:18.829Z,1.70
2022-09-07T12:03:44.056Z,1.80
2022-09-07T12:07:19.834Z,1.63
2022-09-07T12:10:37.774Z,1.90
2022-09-07T12:14:13.251Z,1.67
2022-09-07T12:17:27.782Z,1.70
2022-09-07T12:20:41.456Z,1.60
2022-09-07T12:23:48.465Z,1.70
2022-09-07T12:26:52.364Z,1.60
2022-09-07T12:30:29.145Z,1.10
2022-09-07T12:33:36.729Z,1.23
2022-09-07T12:36:50.456Z,2.03
2022-09-07T12:40:32.361Z,1.45
2022-09-07T12:44:10.350Z,1.40
2022-09-07T12:47:29.337Z,1.10
2022-09-07T12:50:39.460Z,1.20
2022-09-07T12:53:54.209Z,1.20
2022-09-07T13:00:37.382Z,1.30
2022-09-07T13:03:53.554Z,1.40
2022-09-07T13:07:19.385Z,1.13
2022-09-07T13:10:30.499Z,1.30
2022-09-07T13:17:29.729Z,1.08
2022-09-07T13:20:37.602Z,0.98
2022-09-07T13:23:45.758Z,1.00
2022-09-07T13:26:54.203Z,1.20
2022-09-07T13:30:00.506Z,1.30
2022-09-07T13:33:49.104Z,2.03
2022-09-07T13:36:51.959Z,1.58
2022-09-07T13:39:58.432Z,1.40
2022-09-07T13:43:04.086Z,1.67
2022-09-07T13:46:18.044Z,1.42
2022-09-07T13:49:37.331Z,1.38
2022-09-07T13:52:56.373Z,1.63
2022-09-07T13:56:12.371Z,1.13
2022-09-07T13:59:20.464Z,1.45
2022-09-07T14:02:27.143Z,1.33
2022-09-07T14:05:30.122Z,1.40
2022-09-07T14:08:36.728Z,1.40
2022-09-07T14:11:45.327Z,1.40
2022-09-07T14:14:48.624Z,1.38
2022-09-07T14:18:01.606Z,1.50
2022-09-07T14:21:05.853Z,1.35
2022-09-07T14:24:28.983Z,1.50
2022-09-07T14:27:35.415Z,1.40
2022-09-07T14:30:38.909Z,1.35
2022-09-07T14:33:47.280Z,1.30
2022-09-07T14:36:51.753Z,1.42
2022-09-07T14:39:55.956Z,1.30
2022-09-07T14:43:00.063Z,1.60
2022-09-07T14:46:16.681Z,1.27
2022-09-07T14:49:21.605Z,1.35
2022-09-07T14:52:33.387Z,1.48
2022-09-07T14:55:40.507Z,1.73
2022-09-07T14:58:44.661Z,1.50
2022-09-07T15:01:47.349Z,1.30
2022-09-07T15:05:10.933Z,1.40
2022-09-07T15:08:38.722Z,1.40
2022-09-07T15:11:41.483Z,1.30
2022-09-07T15:14:45.997Z,1.10
2022-09-07T15:17:49.536Z,1.60
2022-09-07T15:20:52.992Z,1.50
2022-09-07T15:23:58.560Z,1.60
2022-09-07T15:27:03.159Z,1.33
2022-09-07T15:30:10.759Z,1.60
2022-09-07T15:33:13.848Z,1.40
2022-09-07T15:36:17.886Z,1.52
2022-09-07T15:39:22.425Z,1.30
2022-09-07T15:45:51.288Z,1.40
2022-09-07T15:48:55.861Z,1.50
2022-09-07T15:52:06.414Z,1.48
2022-09-07T15:55:09.876Z,1.10
2022-09-07T15:58:13.531Z,1.40
2022-09-07T16:04:41.012Z,1.20
2022-09-07T16:11:18.712Z,1.33
2022-09-07T16:14:21.602Z,1.10
2022-09-07T16:17:27.437Z,1.20
2022-09-07T16:20:37.840Z,1.07
2022-09-07T16:23:43.276Z,1.10
2022-09-07T16:26:45.955Z,1.33
2022-09-07T16:29:49.105Z,1.20
2022-09-07T16:32:53.461Z,1.10
2022-09-07T16:36:01.002Z,1.20
2022-09-07T16:39:04.115Z,1.10
2022-09-07T16:42:08.871Z,1.20
2022-09-07T16:48:37.325Z,1.20
2022-09-07T16:51:40.911Z,1.20
2022-09-07T16:54:43.810Z,1.00
2022-09-07T17:01:11.459Z,1.00
2022-09-07T17:04:15.660Z,1.20
2022-09-07T17:07:18.612Z,1.07
2022-09-07T17:10:21.450Z,1.30
2022-09-07T17:13:25.487Z,1.20
2022-09-07T17:16:31.241Z,1.00
2022-09-07T17:19:36.247Z,1.30
2022-09-07T17:22:39.060Z,1.10
2022-09-07T17:25:41.758Z,1.10
2022-09-07T17:28:46.158Z,1.20
2022-09-07T17:35:12.953Z,1.33
2022-09-07T17:41:38.875Z,1.30
2022-09-07T17:44:41.837Z,1.33
2022-09-07T17:47:44.996Z,1.23
2022-09-07T17:50:49.371Z,1.20
2022-09-07T17:53:58.784Z,1.10
2022-09-07T17:57:02.044Z,1.10
2022-09-07T18:00:11.226Z,1.03
2022-09-07T18:03:14.755Z,1.30
2022-09-07T18:06:20.032Z,1.20
2022-09-07T18:09:22.932Z,1.60
2022-09-07T18:12:25.745Z,1.20
2022-09-07T18:15:28.901Z,1.30
2022-09-07T18:18:31.804Z,1.40
2022-09-07T18:21:37.961Z,1.63
2022-09-07T18:24:40.742Z,1.50
2022-09-07T18:27:44.248Z,1.57
2022-09-07T18:30:47.273Z,1.30
2022-09-07T18:33:50.009Z,1.37
2022-09-07T18:36:55.213Z,1.30
2022-09-07T18:39:58.108Z,1.40
2022-09-07T18:43:04.251Z,1.50
2022-09-07T18:46:09.970Z,1.40
2022-09-07T18:49:12.711Z,1.67
2022-09-07T18:55:41.344Z,1.33
2022-09-07T18:58:45.583Z,1.43
2022-09-07T19:01:48.645Z,1.63
2022-09-07T19:08:16.053Z,1.50
2022-09-07T19:11:21.027Z,1.50
2022-09-07T19:14:23.796Z,1.70
2022-09-07T19:17:26.497Z,1.60
2022-09-07T19:20:29.612Z,2.00
2022-09-07T19:23:34.176Z,1.73
2022-09-07T19:26:38.862Z,1.57
2022-09-07T19:29:41.734Z,1.63
2022-09-07T19:32:44.742Z,1.90
2022-09-07T19:35:47.751Z,1.50
2022-09-07T19:38:51.934Z,1.80
2022-09-07T19:41:54.781Z,1.60
2022-09-07T19:44:57.574Z,1.90
2022-09-07T19:48:00.275Z,1.80
2022-09-07T19:51:03.031Z,1.80
2022-09-07T19:54:08.296Z,1.80
2022-09-07T19:57:11.091Z,1.50
2022-09-07T20:00:14.863Z,1.90
2022-09-07T20:03:17.576Z,1.80
2022-09-07T20:06:20.332Z,1.70
2022-09-07T20:09:24.851Z,2.10
2022-09-07T20:12:27.795Z,1.70
2022-09-07T20:15:31.309Z,1.70
2022-09-07T20:18:36.439Z,1.87
2022-09-07T20:21:39.169Z,1.70
2022-09-07T20:24:43.745Z,2.60
2022-09-07T20:27:46.717Z,2.10
2022-09-07T20:30:49.423Z,3.80
2022-09-07T20:33:52.750Z,4.47
2022-09-07T20:36:56.879Z,2.73
2022-09-07T20:40:01.152Z,2.60
2022-09-07T20:43:05.034Z,2.90
2022-09-07T20:46:09.869Z,2.20
2022-09-07T20:49:12.719Z,3.13
2022-09-07T20:52:15.465Z,2.20
2022-09-07T20:55:19.616Z,2.20
2022-09-07T20:58:22.310Z,1.80
2022-09-07T21:01:25.515Z,1.83
2022-09-07T21:04:28.385Z,2.20
2022-09-07T21:07:31.080Z,2.07
2022-09-07T21:10:39.376Z,1.97
2022-09-07T21:13:42.573Z,2.20
2022-09-07T21:16:45.237Z,2.27
2022-09-07T21:19:47.978Z,2.00
2022-09-07T21:22:50.754Z,1.97
2022-09-07T21:25:54.905Z,2.23
2022-09-07T21:28:58.755Z,2.40
2022-09-07T21:32:03.039Z,2.20
2022-09-07T21:35:07.012Z,2.17
2022-09-07T21:38:09.775Z,2.00
2022-09-07T21:41:16.781Z,2.00
2022-09-07T21:44:20.409Z,1.77
2022-09-07T21:47:23.282Z,2.03
2022-09-07T21:50:26.393Z,1.87
2022-09-07T21:53:29.429Z,2.10
2022-09-07T21:56:33.922Z,1.80
2022-09-07T21:59:36.622Z,1.87
2022-09-07T22:02:39.553Z,2.00
2022-09-07T22:05:42.583Z,1.73
2022-09-07T22:08:45.850Z,1.77
2022-09-07T22:11:50.438Z,2.00
2022-09-07T22:14:53.178Z,1.90
2022-09-07T22:17:56.653Z,2.07
2022-09-07T22:21:04.299Z,2.13
2022-09-07T22:24:07.767Z,1.80
2022-09-07T22:27:11.855Z,2.10
2022-09-07T22:30:15.584Z,1.93
2022-09-07T22:33:18.649Z,2.00
2022-09-07T22:36:23.353Z,1.80
2022-09-07T22:39:26.346Z,1.77
2022-09-07T22:42:30.358Z,1.90
2022-09-07T22:45:33.443Z,2.20
2022-09-07T22:48:37.024Z,1.83
2022-09-07T22:51:40.139Z,2.17
2022-09-07T22:54:42.964Z,2.00
2022-09-07T22:57:49.693Z,2.00
2022-09-07T23:00:52.891Z,2.00
2022-09-07T23:03:56.356Z,2.10
2022-09-07T23:06:59.376Z,2.10
2022-09-07T23:10:02.085Z,2.07
2022-09-07T23:13:06.354Z,2.10
2022-09-07T23:16:09.508Z,2.10
2022-09-07T23:19:13.659Z,2.13
2022-09-07T23:22:16.283Z,2.00
2022-09-07T23:25:18.986Z,2.10
2022-09-07T23:28:23.411Z,2.47
2022-09-07T23:31:27.499Z,2.40
2022-09-07T23:34:30.296Z,2.40
2022-09-07T23:37:33.373Z,2.40
2022-09-07T23:40:36.792Z,2.50
2022-09-07T23:43:41.276Z,2.00
2022-09-07T23:46:44.435Z,1.93
2022-09-07T23:49:47.595Z,1.90
2022-09-07T23:52:50.297Z,2.10
2022-09-07T23:55:53.555Z,2.00
2022-09-07T23:58:58.074Z,2.10
